createdAt,value
2022-10-13T08:49:30.190Z,54.125
2022-10-13T08:50:39.806Z,54.167999
2022-10-13T08:51:48.481Z,54.27
2022-10-13T08:52:57.236Z,54.356998
2022-10-13T08:54:06.758Z,54.317001
2022-10-13T08:55:15.370Z,54.352001
2022-10-13T08:56:24.969Z,54.352001
2022-10-13T08:57:32.752Z,54.352001
2022-10-13T08:58:41.360Z,54.273998
2022-10-13T08:59:51.062Z,54.701
2022-10-13T09:00:59.901Z,54.691002
2022-10-13T09:02:08.572Z,54.724998
2022-10-13T09:03:17.083Z,54.756001
2022-10-13T09:04:25.646Z,54.834999
2022-10-13T09:05:36.350Z,54.846001
2022-10-13T09:06:45.812Z,54.912998
2022-10-13T09:09:02.934Z,55.105999
2022-10-13T09:10:11.485Z,55.213001
2022-10-13T09:11:20.059Z,55.311001
2022-10-13T09:12:28.654Z,55.438
2022-10-13T09:13:38.339Z,55.511002
2022-10-13T09:14:47.963Z,55.597
2022-10-13T09:15:55.509Z,55.824001
2022-10-13T09:17:04.147Z,56.056
2022-10-13T09:18:13.682Z,56.263
2022-10-13T09:19:22.241Z,56.419998
2022-10-13T09:20:30.821Z,56.473
2022-10-13T09:21:39.468Z,56.540001
2022-10-13T09:22:48.010Z,56.550999
2022-10-13T09:23:57.567Z,56.605999
2022-10-13T09:25:05.169Z,56.639999
2022-10-13T09:26:12.773Z,56.701
2022-10-13T09:27:22.358Z,56.672001
2022-10-13T09:28:31.991Z,56.771
2022-10-13T09:29:40.502Z,56.842999
2022-10-13T09:30:49.082Z,56.818001
2022-10-13T09:31:57.774Z,56.851002
2022-10-13T09:33:07.544Z,56.884998
2022-10-13T09:34:16.241Z,56.810001
2022-10-13T09:35:25.962Z,56.706001
2022-10-13T09:36:35.728Z,56.650002
2022-10-13T09:37:44.324Z,56.595001
2022-10-13T09:38:54.019Z,56.528
2022-10-13T09:40:02.572Z,56.450001
2022-10-13T09:41:11.190Z,56.375999
2022-10-13T09:42:21.192Z,56.303001
2022-10-13T09:43:28.435Z,56.196999
2022-10-13T09:44:36.039Z,56.206001
2022-10-13T09:45:45.842Z,56.160999
2022-10-13T09:46:54.404Z,56.099998
2022-10-13T09:48:02.980Z,56.060001
2022-10-13T09:49:11.576Z,55.980999
2022-10-13T09:50:20.135Z,55.914001
2022-10-13T09:51:29.687Z,55.875
2022-10-13T09:52:37.278Z,55.782001
2022-10-13T09:53:46.941Z,55.639
2022-10-13T09:54:56.533Z,55.571999
2022-10-13T09:56:06.120Z,55.696999
2022-10-13T09:57:14.719Z,55.661999
2022-10-13T09:58:23.316Z,55.597
2022-10-13T09:59:31.932Z,55.549
2022-10-13T10:00:41.515Z,55.502998
2022-10-13T10:01:50.126Z,55.452
2022-10-13T10:02:57.833Z,55.410999
2022-10-13T10:04:07.462Z,55.313999
2022-10-13T10:05:15.936Z,55.175999
2022-10-13T10:06:27.008Z,55.012001
2022-10-13T10:07:35.083Z,54.909
2022-10-13T10:09:01.952Z,54.799999
2022-10-13T10:09:55.183Z,54.756001
2022-10-13T10:11:04.751Z,54.694
2022-10-13T10:12:12.436Z,54.810001
2022-10-13T10:13:22.071Z,54.833
2022-10-13T10:14:30.657Z,54.831001
2022-10-13T10:15:40.209Z,54.799
2022-10-13T10:16:48.772Z,54.782001
2022-10-13T10:17:57.333Z,54.77
2022-10-13T10:19:06.922Z,54.762001
2022-10-13T10:20:15.472Z,54.764999
2022-10-13T10:21:23.019Z,54.757
2022-10-13T10:22:32.612Z,54.731998
2022-10-13T10:23:41.280Z,54.685001
2022-10-13T10:24:49.877Z,54.662998
2022-10-13T10:25:58.524Z,54.651001
2022-10-13T10:27:08.109Z,54.692001
2022-10-13T10:28:15.661Z,54.666
2022-10-13T10:29:25.219Z,54.521999
2022-10-13T10:30:33.793Z,54.595001
2022-10-13T10:31:42.347Z,54.527
2022-10-13T10:32:50.896Z,54.467999
2022-10-13T10:33:59.442Z,54.449001
2022-10-13T10:35:09.029Z,54.405998
2022-10-13T10:36:17.554Z,54.382
2022-10-13T10:37:26.188Z,54.366001
2022-10-13T10:38:35.739Z,54.339001
2022-10-13T10:39:44.331Z,54.312
2022-10-13T10:40:53.880Z,54.280998
2022-10-13T10:42:04.533Z,54.308998
2022-10-13T10:43:13.075Z,54.333
2022-10-13T10:44:22.601Z,54.310001
2022-10-13T10:45:31.231Z,54.301998
2022-10-13T10:46:38.835Z,54.247002
2022-10-13T10:47:48.422Z,54.344002
2022-10-13T10:48:57.976Z,54.319
2022-10-13T10:50:06.539Z,54.283001
2022-10-13T10:51:16.072Z,54.283001
2022-10-13T10:52:24.685Z,54.231998
2022-10-13T10:53:34.253Z,54.199001
2022-10-13T10:54:46.497Z,54.172001
2022-10-13T10:55:51.341Z,54.171001
2022-10-13T10:57:00.914Z,54.188
2022-10-13T10:58:10.510Z,54.189999
2022-10-13T10:59:19.033Z,54.195999
2022-10-13T11:01:36.187Z,54.23
2022-10-13T11:02:45.793Z,54.223999
2022-10-13T11:03:53.375Z,54.060001
2022-10-13T11:05:05.078Z,53.928001
2022-10-13T11:06:12.468Z,53.875
2022-10-13T11:07:22.053Z,54.029999
2022-10-13T11:08:31.642Z,53.863998
2022-10-13T11:09:40.235Z,53.713001
2022-10-13T11:10:49.787Z,53.569
2022-10-13T11:11:58.335Z,53.422001
2022-10-13T11:13:05.915Z,53.265999
2022-10-13T11:14:15.614Z,53.159
2022-10-13T11:15:25.063Z,53.009998
2022-10-13T11:16:33.633Z,52.900002
2022-10-13T11:17:43.214Z,52.699001
2022-10-13T11:18:51.770Z,52.786999
2022-10-13T11:20:00.335Z,52.842999
2022-10-13T11:21:10.880Z,52.810001
2022-10-13T11:22:19.732Z,52.692001
2022-10-13T11:23:27.029Z,52.627998
2022-10-13T11:24:36.568Z,52.464001
2022-10-13T11:25:46.115Z,52.470001
2022-10-13T11:26:54.687Z,52.395
2022-10-13T11:28:04.324Z,52.389
2022-10-13T11:29:13.891Z,52.324001
2022-10-13T11:30:23.515Z,52.092999
2022-10-13T11:31:35.115Z,52.056999
2022-10-13T11:32:40.549Z,51.896
2022-10-13T11:33:50.105Z,51.778
2022-10-13T11:34:59.714Z,51.695999
2022-10-13T11:36:08.306Z,51.681999
2022-10-13T11:37:17.918Z,51.707001
2022-10-13T11:38:26.488Z,51.630001
2022-10-13T11:39:36.057Z,51.618
2022-10-13T11:40:44.585Z,51.469002
2022-10-13T11:41:52.138Z,51.445
2022-10-13T11:43:03.764Z,51.587002
2022-10-13T11:44:11.262Z,51.541
2022-10-13T11:45:20.849Z,51.509998
2022-10-13T11:46:30.439Z,51.348
2022-10-13T11:47:39.057Z,51.257
2022-10-13T11:48:48.617Z,51.292999
2022-10-13T11:49:56.232Z,51.237999
2022-10-13T11:51:04.790Z,51.063999
2022-10-13T11:52:15.405Z,51.040001
2022-10-13T11:53:23.939Z,50.963001
2022-10-13T11:54:32.493Z,51.229
2022-10-13T11:55:41.045Z,51.382999
2022-10-13T11:56:50.631Z,51.470001
2022-10-13T11:58:00.195Z,51.577999
2022-10-13T11:59:07.720Z,51.629002
2022-10-13T12:00:17.975Z,51.666
2022-10-13T12:01:27.520Z,51.737
2022-10-13T12:02:36.153Z,51.730999
2022-10-13T12:03:44.678Z,51.806
2022-10-13T12:04:53.247Z,51.812
2022-10-13T12:06:02.847Z,51.848999
2022-10-13T12:07:12.407Z,51.819
2022-10-13T12:08:20.952Z,51.872002
2022-10-13T12:09:28.518Z,51.877998
2022-10-13T12:10:38.164Z,51.915001
2022-10-13T12:11:47.753Z,51.957001
2022-10-13T12:12:56.300Z,52.001999
2022-10-13T12:14:05.916Z,52.02
2022-10-13T12:15:14.482Z,52.151001
2022-10-13T12:16:24.065Z,52.174999
2022-10-13T12:17:32.648Z,52.168999
2022-10-13T12:18:42.382Z,52.187
2022-10-13T12:19:51.897Z,52.174999
2022-10-13T12:21:00.600Z,52.181
2022-10-13T12:22:09.329Z,52.106998
2022-10-13T12:23:17.973Z,52.069
2022-10-13T12:24:25.558Z,52.077
2022-10-13T12:25:35.143Z,52.09
2022-10-13T12:26:44.702Z,52.119999
2022-10-13T12:27:53.280Z,52.098
2022-10-13T12:29:01.835Z,52.131001
2022-10-13T12:30:10.401Z,52.131001
2022-10-13T12:31:18.957Z,52.118
2022-10-13T12:32:28.567Z,52.126999
2022-10-13T12:33:36.131Z,52.152
2022-10-13T12:34:45.715Z,52.145
2022-10-13T12:35:55.286Z,52.161999
2022-10-13T12:37:03.882Z,52.161999
2022-10-13T12:38:11.483Z,52.131001
2022-10-13T12:39:20.050Z,52.139999
2022-10-13T12:40:28.673Z,52.147999
2022-10-13T12:41:38.254Z,52.139999
2022-10-13T12:42:46.869Z,52.145
2022-10-13T12:43:54.418Z,52.162998
2022-10-13T12:45:05.026Z,52.181
2022-10-13T12:46:13.567Z,52.181
2022-10-13T12:47:22.339Z,52.220001
2022-10-13T12:48:30.789Z,52.203999
2022-10-13T12:49:39.475Z,52.216
2022-10-13T12:50:49.042Z,52.229
2022-10-13T12:51:58.651Z,52.241001
2022-10-13T12:53:06.252Z,52.278999
2022-10-13T12:54:15.915Z,52.266998
2022-10-13T12:55:25.457Z,52.263
2022-10-13T12:56:35.139Z,52.299999
2022-10-13T12:57:43.729Z,52.293999
2022-10-13T12:58:53.356Z,52.272999
2022-10-13T13:00:02.974Z,52.278999
2022-10-13T13:01:10.684Z,52.217999
2022-10-13T13:02:17.447Z,52.263
2022-10-13T13:03:26.877Z,52.313999
2022-10-13T13:04:35.468Z,52.244999
2022-10-13T13:05:49.360Z,52.233002
2022-10-13T13:06:55.623Z,52.219002
2022-10-13T13:08:04.153Z,52.237
2022-10-13T13:09:13.819Z,52.262001
2022-10-13T13:10:21.361Z,52.279999
2022-10-13T13:11:28.945Z,52.391998
2022-10-13T13:12:39.178Z,52.285999
2022-10-13T13:13:47.848Z,52.227001
2022-10-13T13:14:56.703Z,52.196999
2022-10-13T13:16:05.454Z,52.284
2022-10-13T13:17:17.496Z,52.261002
2022-10-13T13:18:25.691Z,52.23
2022-10-13T13:19:35.438Z,52.216
2022-10-13T13:20:42.935Z,52.23
2022-10-13T13:23:01.356Z,52.191002
2022-10-13T13:24:16.410Z,52.195999
2022-10-13T13:25:21.806Z,52.182999
2022-10-13T13:26:30.600Z,52.171001
2022-10-13T13:27:40.509Z,52.153
2022-10-13T13:28:49.188Z,52.171001
2022-10-13T13:29:58.087Z,52.139
2022-10-13T13:31:07.869Z,52.137001
2022-10-13T13:32:19.000Z,52.137001
2022-10-13T13:33:25.204Z,52.148998
2022-10-13T13:34:34.045Z,52.134998
2022-10-13T13:35:42.680Z,52.115002
2022-10-13T13:36:51.279Z,52.071999
2022-10-13T13:38:00.197Z,52.120998
2022-10-13T13:39:10.156Z,52.103001
2022-10-13T13:40:19.757Z,52.09
2022-10-13T13:41:28.339Z,52.089001
2022-10-13T13:42:36.876Z,52.077
2022-10-13T13:43:45.624Z,52.051998
2022-10-13T13:44:54.555Z,52.076
2022-10-13T13:46:04.095Z,52.076
2022-10-13T13:47:11.707Z,52.098
2022-10-13T13:48:20.253Z,52.060001
2022-10-13T13:49:30.236Z,52.011002
2022-10-13T13:50:39.999Z,52.022999
2022-10-13T13:51:48.783Z,52.022999
2022-10-13T13:52:58.457Z,51.992001
2022-10-13T13:54:07.015Z,52.007
2022-10-13T13:55:16.633Z,51.983002
2022-10-13T13:56:26.279Z,51.970001
2022-10-13T13:57:35.026Z,51.977001
2022-10-13T13:58:44.577Z,51.977001
2022-10-13T13:59:54.251Z,51.928001
2022-10-13T14:01:03.404Z,51.93
2022-10-13T14:02:13.557Z,51.936001
2022-10-13T14:03:22.099Z,51.917999
2022-10-13T14:04:32.031Z,51.922001
2022-10-13T14:05:42.033Z,51.91
2022-10-13T14:06:51.617Z,51.891998
2022-10-13T14:08:01.246Z,51.905998
2022-10-13T14:09:10.854Z,51.918999
2022-10-13T14:10:20.428Z,51.905998
2022-10-13T14:11:30.096Z,51.911999
2022-10-13T14:12:38.999Z,51.863998
2022-10-13T14:13:48.759Z,51.882
2022-10-13T14:14:57.290Z,51.882
2022-10-13T14:16:04.995Z,51.869999
2022-10-13T14:17:14.581Z,51.875999
2022-10-13T14:18:23.272Z,51.891998
2022-10-13T14:19:31.848Z,51.855999
2022-10-13T14:20:41.443Z,51.849998
2022-10-13T14:21:57.808Z,51.849998
2022-10-13T14:23:55.326Z,51.834999
2022-10-13T14:25:57.258Z,51.731998
2022-10-13T14:27:07.098Z,51.694
